createdAt,value
2022-07-29T00:02:43.403Z,81.30
2022-07-29T00:05:45.074Z,82.30
2022-07-29T00:08:46.686Z,83.40
2022-07-29T00:11:48.714Z,83.80
2022-07-29T00:14:50.388Z,82.80
2022-07-29T00:17:52.102Z,82.80
2022-07-29T00:20:53.760Z,83.60
2022-07-29T00:23:55.417Z,84.30
2022-07-29T00:26:57.051Z,84.60
2022-07-29T00:29:58.685Z,86.20
2022-07-29T00:33:00.309Z,87.10
2022-07-29T00:36:02.063Z,86.10
2022-07-29T00:39:04.035Z,85.70
2022-07-29T00:42:06.237Z,84.70
2022-07-29T00:45:08.106Z,85.10
2022-07-29T00:48:10.244Z,86.00
2022-07-29T00:51:12.705Z,85.70
2022-07-29T00:54:14.686Z,85.30
2022-07-29T00:57:16.514Z,85.50
2022-07-29T01:00:24.232Z,85.20
2022-07-29T01:03:26.043Z,85.00
2022-07-29T01:06:27.990Z,84.50
2022-07-29T01:09:45.247Z,84.60
2022-07-29T01:12:51.228Z,84.00
2022-07-29T01:15:57.794Z,83.80
2022-07-29T01:19:23.938Z,83.40
2022-07-29T01:23:08.657Z,83.30
2022-07-29T01:26:39.370Z,83.10
2022-07-29T01:29:47.892Z,83.10
2022-07-29T01:32:54.341Z,82.80
2022-07-29T01:35:56.076Z,84.20
2022-07-29T01:39:11.031Z,82.80
2022-07-29T01:42:22.079Z,83.20
2022-07-29T01:45:44.094Z,83.10
2022-07-29T01:48:54.525Z,83.30
2022-07-29T01:52:06.723Z,84.00
2022-07-29T01:55:14.454Z,83.40
2022-07-29T01:58:19.987Z,83.30
2022-07-29T02:01:24.727Z,83.60
2022-07-29T02:04:30.026Z,83.40
2022-07-29T02:07:33.833Z,83.30
2022-07-29T02:10:39.046Z,83.50
2022-07-29T02:13:43.171Z,83.40
2022-07-29T02:16:46.242Z,83.40
2022-07-29T02:19:49.238Z,83.50
2022-07-29T02:22:51.850Z,83.60
2022-07-29T02:25:58.109Z,83.80
2022-07-29T02:29:01.026Z,83.90
2022-07-29T02:32:04.400Z,83.80
2022-07-29T02:35:07.664Z,84.10
2022-07-29T02:38:32.021Z,84.30
2022-07-29T02:41:48.855Z,84.30
2022-07-29T02:44:51.138Z,84.10
2022-07-29T02:47:54.630Z,84.10
2022-07-29T02:51:07.349Z,84.10
2022-07-29T02:54:11.297Z,84.30
2022-07-29T02:57:23.436Z,84.70
2022-07-29T03:00:29.295Z,84.90
2022-07-29T03:03:38.267Z,85.20
2022-07-29T03:06:41.422Z,85.50
2022-07-29T03:09:44.749Z,85.70
2022-07-29T03:12:47.455Z,86.00
2022-07-29T03:15:49.611Z,86.50
2022-07-29T03:18:51.874Z,86.80
2022-07-29T03:21:55.987Z,87.10
2022-07-29T03:24:57.566Z,87.50
2022-07-29T03:27:59.792Z,87.80
2022-07-29T03:31:01.474Z,88.10
2022-07-29T03:34:03.370Z,88.60
2022-07-29T03:37:06.974Z,89.40
2022-07-29T03:40:11.104Z,89.40
2022-07-29T03:43:16.223Z,90.00
2022-07-29T03:46:20.894Z,90.20
2022-07-29T03:49:24.584Z,90.60
2022-07-29T03:52:26.530Z,90.80
2022-07-29T03:55:31.671Z,91.10
2022-07-29T03:58:34.204Z,91.30
2022-07-29T04:01:36.195Z,91.60
2022-07-29T04:04:38.362Z,91.90
2022-07-29T04:07:40.559Z,92.10
2022-07-29T04:10:42.141Z,92.40
2022-07-29T04:13:43.773Z,92.80
2022-07-29T04:16:45.386Z,93.30
2022-07-29T04:19:47.012Z,93.10
2022-07-29T04:22:48.634Z,93.40
2022-07-29T04:25:50.263Z,93.90
2022-07-29T04:28:51.866Z,93.90
2022-07-29T04:31:53.544Z,94.10
2022-07-29T04:34:55.159Z,94.60
2022-07-29T04:37:57.129Z,94.90
2022-07-29T04:40:58.783Z,94.60
2022-07-29T04:44:05.826Z,93.90
2022-07-29T04:47:09.161Z,93.30
2022-07-29T04:50:11.196Z,92.90
2022-07-29T04:53:13.126Z,92.80
2022-07-29T04:56:14.848Z,92.50
2022-07-29T04:59:16.515Z,92.60
2022-07-29T05:02:18.227Z,92.70
2022-07-29T05:05:20.021Z,93.00
2022-07-29T05:08:21.649Z,92.50
2022-07-29T05:11:27.244Z,92.60
2022-07-29T05:14:31.649Z,92.60
2022-07-29T05:17:33.255Z,92.30
2022-07-29T05:20:35.551Z,92.30
2022-07-29T05:23:37.226Z,92.10
2022-07-29T05:26:39.584Z,91.90
2022-07-29T05:29:43.707Z,92.00
2022-07-29T05:32:47.087Z,92.30
2022-07-29T05:35:48.679Z,92.00
2022-07-29T05:38:51.922Z,91.90
2022-07-29T05:41:53.517Z,91.30
2022-07-29T05:44:55.110Z,91.50
2022-07-29T05:47:56.705Z,91.00
2022-07-29T05:50:58.310Z,91.00
2022-07-29T05:54:00.040Z,90.80
2022-07-29T05:57:01.867Z,90.70
2022-07-29T06:00:04.365Z,90.70
2022-07-29T06:03:09.167Z,90.40
2022-07-29T06:06:10.950Z,90.30
2022-07-29T06:09:13.798Z,89.40
2022-07-29T06:12:15.932Z,89.00
2022-07-29T06:15:17.767Z,88.40
2022-07-29T06:18:19.425Z,87.80
2022-07-29T06:21:21.060Z,87.50
2022-07-29T06:24:22.688Z,86.80
2022-07-29T06:27:24.329Z,86.50
2022-07-29T06:30:26.179Z,85.70
2022-07-29T06:33:27.892Z,84.70
2022-07-29T06:36:29.627Z,83.00
2022-07-29T06:39:31.661Z,84.00
2022-07-29T06:42:33.244Z,82.90
2022-07-29T06:45:44.601Z,82.10
2022-07-29T06:48:48.606Z,82.00
2022-07-29T06:51:50.426Z,81.00
2022-07-29T06:54:52.140Z,80.30
2022-07-29T06:57:53.761Z,80.20
2022-07-29T07:00:56.734Z,80.20
2022-07-29T07:03:58.470Z,80.00
2022-07-29T07:07:00.519Z,79.80
2022-07-29T07:10:02.331Z,79.30
2022-07-29T07:13:05.276Z,79.20
2022-07-29T07:16:07.487Z,79.50
2022-07-29T07:19:09.267Z,79.90
2022-07-29T07:22:10.845Z,79.80
2022-07-29T07:25:13.392Z,79.50
2022-07-29T07:28:14.996Z,79.70
2022-07-29T07:31:16.708Z,79.90
2022-07-29T07:34:18.938Z,81.10
2022-07-29T07:37:31.663Z,81.50
2022-07-29T07:40:33.541Z,82.00
2022-07-29T07:43:35.140Z,82.20
2022-07-29T07:46:36.763Z,82.40
2022-07-29T07:49:40.037Z,84.00
2022-07-29T07:52:54.554Z,87.40
2022-07-29T07:56:12.865Z,87.00
2022-07-29T07:59:14.679Z,89.20
2022-07-29T08:02:16.328Z,89.60
2022-07-29T08:05:18.267Z,89.90
2022-07-29T08:08:19.934Z,89.90
2022-07-29T08:11:21.922Z,90.30
2022-07-29T08:14:23.597Z,89.80
2022-07-29T08:17:25.275Z,89.70
2022-07-29T08:20:26.989Z,88.70
2022-07-29T08:23:47.272Z,90.10
2022-07-29T08:26:50.389Z,90.40
2022-07-29T08:29:51.994Z,90.10
2022-07-29T08:32:55.010Z,90.20
2022-07-29T08:35:57.297Z,90.30
2022-07-29T08:38:59.190Z,90.40
2022-07-29T08:42:01.161Z,90.30
2022-07-29T08:45:04.669Z,89.90
2022-07-29T08:48:06.441Z,90.10
2022-07-29T08:51:20.115Z,90.40
2022-07-29T08:54:24.290Z,90.10
2022-07-29T08:57:27.218Z,90.50
2022-07-29T09:00:30.278Z,90.50
2022-07-29T09:03:33.303Z,91.10
2022-07-29T09:06:39.255Z,91.00
2022-07-29T09:09:41.022Z,91.20
2022-07-29T09:12:42.984Z,91.20
2022-07-29T09:15:45.228Z,90.90
2022-07-29T09:18:47.629Z,91.60
2022-07-29T09:22:03.305Z,91.90
2022-07-29T09:25:05.435Z,92.50
2022-07-29T09:28:08.683Z,91.70
2022-07-29T09:31:10.459Z,91.60
2022-07-29T09:34:14.255Z,92.00
2022-07-29T09:37:30.919Z,91.10
2022-07-29T09:40:32.613Z,91.30
2022-07-29T09:43:35.043Z,91.10
2022-07-29T09:46:37.015Z,91.00
2022-07-29T09:50:01.334Z,91.00
2022-07-29T09:53:02.926Z,90.70
2022-07-29T09:56:05.705Z,90.40
2022-07-29T09:59:08.704Z,89.70
2022-07-29T10:02:17.730Z,88.30
2022-07-29T10:05:25.829Z,88.10
2022-07-29T10:08:27.832Z,87.30
2022-07-29T10:11:36.521Z,88.10
2022-07-29T10:14:51.831Z,89.10
2022-07-29T10:17:55.099Z,88.60
2022-07-29T10:20:57.753Z,89.10
2022-07-29T10:24:01.305Z,88.70
2022-07-29T10:27:05.112Z,90.00
2022-07-29T10:30:07.897Z,88.70
2022-07-29T10:33:45.039Z,87.60
2022-07-29T10:37:10.515Z,88.50
2022-07-29T10:40:38.272Z,88.10
2022-07-29T10:43:46.835Z,88.00
2022-07-29T10:46:54.273Z,86.90
2022-07-29T10:50:01.675Z,86.10
2022-07-29T10:53:03.495Z,85.60
2022-07-29T10:56:25.274Z,84.90
2022-07-29T10:59:32.231Z,84.40
2022-07-29T11:02:46.528Z,84.70
2022-07-29T11:05:56.543Z,84.00
2022-07-29T11:09:27.347Z,84.30
2022-07-29T11:12:39.303Z,86.20
2022-07-29T11:15:57.127Z,85.60
2022-07-29T11:19:14.331Z,85.40
2022-07-29T11:22:36.613Z,84.90
2022-07-29T11:25:50.155Z,84.40
2022-07-29T11:28:54.008Z,83.00
2022-07-29T11:32:10.046Z,82.20
2022-07-29T11:35:38.064Z,82.50
2022-07-29T11:38:41.975Z,82.00
2022-07-29T11:41:43.564Z,81.40
2022-07-29T11:45:42.155Z,80.60
2022-07-29T11:48:32.427Z,80.80
2022-07-29T11:51:38.285Z,79.30
2022-07-29T11:54:57.776Z,79.50
2022-07-29T11:58:04.071Z,79.90
2022-07-29T12:01:07.281Z,81.20
2022-07-29T12:04:09.323Z,81.80
2022-07-29T12:07:15.575Z,79.20
2022-07-29T12:10:29.577Z,78.90
2022-07-29T12:13:39.970Z,79.00
2022-07-29T12:16:41.593Z,78.80
2022-07-29T12:19:44.292Z,77.90
2022-07-29T12:22:49.281Z,78.20
2022-07-29T12:25:51.027Z,76.00
2022-07-29T12:28:52.677Z,78.40
2022-07-29T12:31:58.017Z,76.80
2022-07-29T12:35:00.844Z,76.30
2022-07-29T12:38:03.363Z,75.50
2022-07-29T12:41:05.278Z,75.70
2022-07-29T12:44:06.982Z,73.00
2022-07-29T12:47:08.566Z,74.30
2022-07-29T12:50:20.277Z,71.40
2022-07-29T12:53:25.838Z,70.40
2022-07-29T12:56:42.138Z,70.00
2022-07-29T12:59:44.250Z,70.00
2022-07-29T13:02:56.590Z,71.50
2022-07-29T13:05:58.235Z,70.40
2022-07-29T13:09:05.309Z,70.30
2022-07-29T13:12:09.179Z,70.40
2022-07-29T13:15:17.498Z,69.20
2022-07-29T13:18:32.927Z,72.60
2022-07-29T13:21:34.841Z,71.30
2022-07-29T13:24:56.304Z,71.50
2022-07-29T13:27:58.550Z,71.30
2022-07-29T13:31:00.217Z,71.30
2022-07-29T13:34:01.848Z,71.50
2022-07-29T13:37:03.474Z,71.70
2022-07-29T13:40:06.875Z,72.00
2022-07-29T13:43:12.023Z,71.80
2022-07-29T13:46:13.723Z,70.30
2022-07-29T13:49:15.429Z,70.00
2022-07-29T13:52:17.870Z,70.20
2022-07-29T13:55:19.662Z,70.00
2022-07-29T13:58:21.329Z,69.30
2022-07-29T14:01:22.992Z,71.00
2022-07-29T14:04:24.747Z,70.60
2022-07-29T14:07:26.408Z,71.90
2022-07-29T14:10:28.054Z,70.10
2022-07-29T14:13:29.641Z,71.60
2022-07-29T14:16:31.518Z,69.70
2022-07-29T14:19:36.189Z,70.60
2022-07-29T14:22:42.307Z,71.40
2022-07-29T14:25:44.591Z,70.60
2022-07-29T14:28:46.788Z,70.90
2022-07-29T14:31:48.649Z,72.00
2022-07-29T14:34:50.400Z,73.90
2022-07-29T14:37:52.007Z,73.00
2022-07-29T14:40:53.598Z,74.00
2022-07-29T14:43:55.489Z,74.80
2022-07-29T14:46:57.713Z,75.30
2022-07-29T14:50:00.092Z,74.90
2022-07-29T14:53:01.920Z,74.20
2022-07-29T14:56:21.137Z,74.60
2022-07-29T14:59:26.287Z,74.30
2022-07-29T15:02:45.717Z,73.30
2022-07-29T15:05:47.640Z,71.10
2022-07-29T15:08:49.711Z,70.10
2022-07-29T15:11:51.349Z,71.40
2022-07-29T15:14:52.938Z,70.10
2022-07-29T15:17:54.559Z,71.40
2022-07-29T15:20:56.133Z,72.90
2022-07-29T15:23:57.770Z,72.60
2022-07-29T15:26:59.452Z,72.90
2022-07-29T15:30:01.188Z,74.50
2022-07-29T15:33:03.995Z,76.50
2022-07-29T15:36:05.811Z,74.70
2022-07-29T15:39:07.432Z,74.20
2022-07-29T15:42:09.144Z,74.90
2022-07-29T15:45:10.975Z,75.10
2022-07-29T15:48:14.877Z,74.80
2022-07-29T15:51:16.576Z,74.70
2022-07-29T15:54:18.140Z,75.30
2022-07-29T15:57:19.742Z,73.80
2022-07-29T16:00:22.405Z,74.80
2022-07-29T16:03:24.901Z,73.60
2022-07-29T16:06:26.757Z,73.40
2022-07-29T16:09:28.886Z,72.80
2022-07-29T16:12:30.523Z,77.00
2022-07-29T16:15:32.302Z,78.30
2022-07-29T16:18:34.653Z,77.90
2022-07-29T16:21:37.715Z,78.70
2022-07-29T16:24:39.612Z,79.30
2022-07-29T16:27:41.229Z,79.50
2022-07-29T16:30:42.805Z,79.20
2022-07-29T16:33:55.506Z,79.40
2022-07-29T16:36:57.515Z,79.90
2022-07-29T16:39:59.329Z,80.00
2022-07-29T16:43:01.075Z,80.50
2022-07-29T16:46:02.821Z,81.30
2022-07-29T16:49:04.756Z,82.10
2022-07-29T16:52:06.771Z,82.10
2022-07-29T16:55:08.693Z,83.80
2022-07-29T16:58:11.094Z,87.30
2022-07-29T17:01:12.871Z,89.20
2022-07-29T17:04:15.077Z,90.10
2022-07-29T17:07:17.246Z,89.90
2022-07-29T17:10:18.918Z,90.20
2022-07-29T17:13:20.602Z,90.70
2022-07-29T17:16:24.669Z,91.00
2022-07-29T17:19:26.952Z,91.10
2022-07-29T17:22:28.778Z,91.00
2022-07-29T17:25:30.398Z,91.10
2022-07-29T17:28:32.020Z,91.10
2022-07-29T17:31:33.661Z,91.20
2022-07-29T17:34:40.349Z,91.20
2022-07-29T17:37:41.968Z,91.20
2022-07-29T17:40:43.643Z,91.20
2022-07-29T17:43:45.345Z,90.30
2022-07-29T17:46:47.326Z,90.10
2022-07-29T17:49:48.961Z,89.50
2022-07-29T17:52:50.611Z,89.40
2022-07-29T17:55:52.183Z,89.00
2022-07-29T17:58:54.390Z,89.30
2022-07-29T18:01:56.084Z,90.00
2022-07-29T18:04:57.962Z,90.40
2022-07-29T18:07:59.648Z,90.70
2022-07-29T18:11:02.500Z,91.30
2022-07-29T18:14:04.182Z,91.60
2022-07-29T18:17:05.892Z,92.00
2022-07-29T18:20:08.047Z,93.70
2022-07-29T18:23:10.341Z,97.70
2022-07-29T18:26:11.954Z,99.90
2022-07-29T18:29:13.622Z,99.90
2022-07-29T18:32:15.225Z,99.90
2022-07-29T18:35:17.580Z,99.90
2022-07-29T18:38:19.616Z,99.90
2022-07-29T18:41:21.186Z,99.90
2022-07-29T18:44:25.304Z,99.90
2022-07-29T18:47:32.240Z,99.90
2022-07-29T18:50:34.426Z,99.90
2022-07-29T18:53:37.045Z,99.90
2022-07-29T18:56:38.858Z,99.90
2022-07-29T18:59:40.476Z,99.90
2022-07-29T19:02:42.267Z,99.90
2022-07-29T19:05:44.188Z,99.90
2022-07-29T19:08:45.800Z,99.90
2022-07-29T19:11:47.468Z,99.90
2022-07-29T19:14:49.031Z,99.90
2022-07-29T19:17:50.743Z,99.90
2022-07-29T19:20:52.470Z,99.90
2022-07-29T19:24:05.220Z,99.90
2022-07-29T19:27:10.054Z,99.90
2022-07-29T19:30:12.001Z,99.90
2022-07-29T19:33:17.255Z,99.90
2022-07-29T19:36:18.843Z,99.90
2022-07-29T19:39:31.985Z,99.90
2022-07-29T19:42:37.106Z,99.90
2022-07-29T19:45:39.020Z,99.90
2022-07-29T19:48:40.709Z,99.90
2022-07-29T19:51:42.380Z,99.90
2022-07-29T19:54:44.071Z,99.90
2022-07-29T19:57:46.491Z,99.90
2022-07-29T20:00:48.179Z,99.90
2022-07-29T20:03:50.652Z,99.90
2022-07-29T20:06:55.876Z,99.90
2022-07-29T20:09:57.782Z,99.90
2022-07-29T20:12:59.447Z,99.90
2022-07-29T20:16:02.606Z,99.90
2022-07-29T20:19:04.237Z,99.90
2022-07-29T20:22:05.893Z,99.90
2022-07-29T20:25:09.815Z,99.90
2022-07-29T20:28:11.433Z,99.90
2022-07-29T20:31:15.402Z,99.90
2022-07-29T20:34:17.101Z,99.90
2022-07-29T20:37:20.490Z,99.90
2022-07-29T20:40:22.259Z,99.90
2022-07-29T20:43:24.233Z,99.90
2022-07-29T20:46:25.903Z,99.90
2022-07-29T20:49:27.563Z,99.90
2022-07-29T20:52:30.078Z,99.90
2022-07-29T20:55:32.191Z,99.90
2022-07-29T20:58:34.503Z,99.90
2022-07-29T21:01:36.229Z,99.90
2022-07-29T21:04:37.950Z,99.90
2022-07-29T21:07:39.578Z,99.90
2022-07-29T21:10:41.212Z,99.90
2022-07-29T21:13:45.206Z,99.90
2022-07-29T21:16:46.819Z,99.90
2022-07-29T21:19:50.505Z,99.90
2022-07-29T21:22:55.387Z,99.90
2022-07-29T21:25:57.247Z,99.90
2022-07-29T21:28:59.270Z,99.90
2022-07-29T21:32:00.892Z,99.90
2022-07-29T21:35:03.065Z,99.90
2022-07-29T21:38:18.190Z,99.90
2022-07-29T21:41:21.744Z,99.90
2022-07-29T21:44:23.382Z,99.90
2022-07-29T21:47:25.161Z,99.90
2022-07-29T21:50:26.737Z,99.90
2022-07-29T21:53:28.466Z,99.90
2022-07-29T21:56:30.547Z,99.90
2022-07-29T21:59:33.182Z,99.90
2022-07-29T22:02:34.791Z,99.90
2022-07-29T22:05:36.447Z,99.90
2022-07-29T22:08:40.088Z,99.90
2022-07-29T22:11:41.952Z,99.90
2022-07-29T22:14:43.529Z,99.90
2022-07-29T22:17:45.543Z,99.90
2022-07-29T22:20:47.148Z,99.90
2022-07-29T22:23:48.730Z,99.90
2022-07-29T22:26:50.413Z,99.90
2022-07-29T22:29:52.002Z,99.90
2022-07-29T22:32:53.600Z,99.90
2022-07-29T22:35:55.195Z,99.90
2022-07-29T22:38:56.807Z,99.90
2022-07-29T22:41:58.382Z,99.90
2022-07-29T22:45:00.400Z,99.90
2022-07-29T22:48:02.022Z,99.90
2022-07-29T22:51:05.020Z,99.90
2022-07-29T22:54:06.615Z,99.90
2022-07-29T22:57:08.230Z,99.90
2022-07-29T23:00:10.643Z,99.90
2022-07-29T23:03:12.235Z,99.90
2022-07-29T23:06:14.269Z,99.90
2022-07-29T23:09:15.855Z,99.90
2022-07-29T23:12:17.558Z,99.90
2022-07-29T23:15:19.567Z,99.90
2022-07-29T23:18:21.234Z,99.90
2022-07-29T23:21:23.091Z,99.90
2022-07-29T23:24:24.695Z,99.90
2022-07-29T23:27:26.269Z,99.90
2022-07-29T23:30:28.309Z,99.90
2022-07-29T23:33:29.913Z,99.90
2022-07-29T23:36:31.567Z,99.90
2022-07-29T23:39:33.219Z,99.90
2022-07-29T23:42:34.941Z,99.90
2022-07-29T23:45:44.732Z,99.90
2022-07-29T23:48:46.966Z,99.90
2022-07-29T23:51:48.625Z,99.90
2022-07-29T23:54:50.287Z,99.90
2022-07-29T23:57:51.987Z,99.90
